createdAt,value
2018-06-17T00:00:35.843Z,3.40
2018-06-17T00:03:04.074Z,3.62
2018-06-17T00:05:32.328Z,3.55
2018-06-17T00:08:00.583Z,3.58
2018-06-17T00:10:28.903Z,3.10
2018-06-17T00:12:57.094Z,3.83
2018-06-17T00:15:25.359Z,3.65
2018-06-17T00:17:53.603Z,3.70
2018-06-17T00:20:21.840Z,3.77
2018-06-17T00:22:50.220Z,4.67
2018-06-17T00:25:18.522Z,3.85
2018-06-17T00:27:46.732Z,4.37
2018-06-17T00:30:14.967Z,3.85
2018-06-17T00:32:43.176Z,3.67
2018-06-17T00:35:11.365Z,3.98
2018-06-17T00:37:39.640Z,3.80
2018-06-17T00:40:07.847Z,4.55
2018-06-17T00:42:36.181Z,4.80
2018-06-17T00:45:04.576Z,4.62
2018-06-17T00:47:32.790Z,5.30
2018-06-17T00:50:01.001Z,5.15
2018-06-17T00:52:29.230Z,4.70
2018-06-17T00:54:57.474Z,4.55
2018-06-17T00:57:37.111Z,4.53
2018-06-17T01:02:57.197Z,4.70
2018-06-17T01:05:25.388Z,4.20
2018-06-17T01:07:53.791Z,4.33
2018-06-17T01:10:22.008Z,4.33
2018-06-17T01:12:50.198Z,4.70
2018-06-17T01:15:18.466Z,4.50
2018-06-17T01:17:46.740Z,3.70
2018-06-17T01:20:15.020Z,4.53
2018-06-17T01:22:43.228Z,4.15
2018-06-17T01:25:11.489Z,3.72
2018-06-17T01:27:39.686Z,4.40
2018-06-17T01:30:07.916Z,4.70
2018-06-17T01:32:36.136Z,4.05
2018-06-17T01:35:04.583Z,4.00
2018-06-17T01:37:32.779Z,5.30
2018-06-17T01:40:00.973Z,4.37
2018-06-17T01:42:29.207Z,3.77
2018-06-17T01:44:57.384Z,4.08
2018-06-17T01:47:25.634Z,4.72
2018-06-17T01:49:53.846Z,4.15
2018-06-17T01:52:22.134Z,3.65
2018-06-17T01:54:50.451Z,3.90
2018-06-17T01:57:18.734Z,4.65
2018-06-17T01:59:46.922Z,3.95
2018-06-17T02:02:15.126Z,3.72
2018-06-17T02:04:48.703Z,3.75
2018-06-17T02:07:22.203Z,4.47
2018-06-17T02:09:55.656Z,4.20
2018-06-17T02:12:23.843Z,3.98
2018-06-17T02:14:57.153Z,4.12
2018-06-17T02:17:26.135Z,4.55
2018-06-17T02:19:55.204Z,4.80
2018-06-17T02:22:23.687Z,5.62
2018-06-17T02:24:51.926Z,4.30
2018-06-17T02:27:20.532Z,4.92
2018-06-17T02:29:48.777Z,4.22
2018-06-17T02:32:16.965Z,4.25
2018-06-17T02:34:45.225Z,4.90
2018-06-17T02:37:13.409Z,4.92
2018-06-17T02:39:42.273Z,5.25
2018-06-17T02:42:10.835Z,5.12
2018-06-17T02:44:39.196Z,4.62
2018-06-17T02:47:12.781Z,5.10
2018-06-17T02:49:45.314Z,4.83
2018-06-17T02:52:18.924Z,4.60
2018-06-17T02:54:48.217Z,4.25
2018-06-17T02:57:17.636Z,4.75
2018-06-17T02:59:46.853Z,4.80
2018-06-17T03:02:15.384Z,4.78
2018-06-17T03:04:43.644Z,4.53
2018-06-17T03:07:11.899Z,4.35
2018-06-17T03:09:40.253Z,5.00
2018-06-17T03:12:08.464Z,4.70
2018-06-17T03:14:36.693Z,4.75
2018-06-17T03:17:04.913Z,4.62
2018-06-17T03:19:33.119Z,4.37
2018-06-17T03:22:01.320Z,5.10
2018-06-17T03:24:35.091Z,4.83
2018-06-17T03:27:08.545Z,4.22
2018-06-17T03:29:42.248Z,4.80
2018-06-17T03:32:15.854Z,4.92
2018-06-17T03:34:44.567Z,5.42
2018-06-17T03:37:12.785Z,4.30
2018-06-17T03:39:41.197Z,4.25
2018-06-17T03:42:09.449Z,5.10
2018-06-17T03:44:37.652Z,4.67
2018-06-17T03:47:05.876Z,5.42
2018-06-17T03:49:34.100Z,4.72
2018-06-17T03:52:02.424Z,4.40
2018-06-17T03:54:30.665Z,4.47
2018-06-17T03:56:59.020Z,5.37
2018-06-17T03:59:27.218Z,4.00
2018-06-17T04:01:55.463Z,4.67
2018-06-17T04:04:23.906Z,4.80
2018-06-17T04:06:52.764Z,5.50
2018-06-17T04:09:21.008Z,5.00
2018-06-17T04:11:49.779Z,5.85
2018-06-17T04:14:18.120Z,5.62
2018-06-17T04:16:46.362Z,5.70
2018-06-17T04:19:14.964Z,6.40
2018-06-17T04:21:43.150Z,4.80
2018-06-17T04:24:11.408Z,5.45
2018-06-17T04:26:39.652Z,6.30
2018-06-17T04:29:07.911Z,6.10
2018-06-17T04:31:36.192Z,5.65
2018-06-17T04:34:04.601Z,5.87
2018-06-17T04:36:32.851Z,6.00
2018-06-17T04:39:01.102Z,6.10
2018-06-17T04:41:29.373Z,6.33
2018-06-17T04:43:57.617Z,5.65
2018-06-17T04:46:26.564Z,6.10
2018-06-17T04:48:54.781Z,6.08
2018-06-17T04:51:23.071Z,6.62
2018-06-17T04:53:51.383Z,7.08
2018-06-17T04:56:19.671Z,6.78
2018-06-17T04:58:47.872Z,6.90
2018-06-17T05:01:16.180Z,5.90
2018-06-17T05:03:44.506Z,6.72
2018-06-17T05:06:12.762Z,5.92
2018-06-17T05:08:41.022Z,5.78
2018-06-17T05:11:09.255Z,7.17
2018-06-17T05:13:37.496Z,6.60
2018-06-17T05:16:05.769Z,6.80
2018-06-17T05:18:34.011Z,5.80
2018-06-17T05:21:02.209Z,6.03
2018-06-17T05:23:30.447Z,5.65
2018-06-17T05:25:58.668Z,6.50
2018-06-17T05:28:26.937Z,7.05
2018-06-17T05:30:55.119Z,6.08
2018-06-17T05:33:23.335Z,6.33
2018-06-17T05:35:51.612Z,5.85
2018-06-17T05:38:19.820Z,6.55
2018-06-17T05:40:48.038Z,6.28
2018-06-17T05:43:16.280Z,5.78
2018-06-17T05:45:44.621Z,6.60
2018-06-17T05:48:12.957Z,6.00
2018-06-17T05:50:41.176Z,6.12
2018-06-17T05:53:09.370Z,6.75
2018-06-17T05:55:37.692Z,6.85
2018-06-17T05:58:05.866Z,6.80
2018-06-17T06:00:34.085Z,7.92
2018-06-17T06:03:02.374Z,6.05
2018-06-17T06:05:30.641Z,6.83
2018-06-17T06:07:58.924Z,6.50
2018-06-17T06:10:33.571Z,5.33
2018-06-17T06:13:02.587Z,4.83
2018-06-17T06:15:30.779Z,5.03
2018-06-17T06:17:59.770Z,5.83
2018-06-17T06:20:28.034Z,5.40
2018-06-17T06:22:56.592Z,4.47
2018-06-17T06:25:24.787Z,5.35
2018-06-17T06:27:53.013Z,4.95
2018-06-17T06:30:21.237Z,4.70
2018-06-17T06:32:50.135Z,4.95
2018-06-17T06:35:18.428Z,5.15
2018-06-17T06:37:46.650Z,4.47
2018-06-17T06:40:14.975Z,4.92
2018-06-17T06:42:43.194Z,4.75
2018-06-17T06:45:11.471Z,3.52
2018-06-17T06:47:39.897Z,3.60
2018-06-17T06:50:08.341Z,4.28
2018-06-17T06:52:36.565Z,4.03
2018-06-17T06:55:04.786Z,3.00
2018-06-17T06:57:33.077Z,3.37
2018-06-17T07:00:01.267Z,3.92
2018-06-17T07:02:40.842Z,3.37
2018-06-17T07:05:20.248Z,3.12
2018-06-17T07:07:59.888Z,3.47
2018-06-17T07:10:29.114Z,2.60
2018-06-17T07:12:57.308Z,3.00
2018-06-17T07:15:37.982Z,3.55
2018-06-17T07:18:17.688Z,2.90
2018-06-17T07:20:46.163Z,2.85
2018-06-17T07:23:14.736Z,2.90
2018-06-17T07:26:53.292Z,3.05
2018-06-17T07:29:34.062Z,1.92
2018-06-17T07:32:02.231Z,1.98
2018-06-17T07:34:30.578Z,2.00
2018-06-17T07:36:58.784Z,3.45
2018-06-17T07:41:35.108Z,1.87
2018-06-17T07:44:03.861Z,1.95
2018-06-17T07:46:32.730Z,1.90
2018-06-17T07:49:41.546Z,2.40
2018-06-17T07:52:22.138Z,1.98
2018-06-17T07:54:50.554Z,1.57
2018-06-17T07:57:21.680Z,2.08
2018-06-17T07:59:49.947Z,1.47
2018-06-17T08:02:19.324Z,2.15
2018-06-17T08:04:47.628Z,1.72
2018-06-17T08:07:15.803Z,1.80
2018-06-17T08:09:44.045Z,2.47
2018-06-17T08:12:12.820Z,1.65
2018-06-17T08:14:41.473Z,2.85
2018-06-17T08:17:09.689Z,1.98
2018-06-17T08:19:38.119Z,1.98
2018-06-17T08:22:06.324Z,2.15
2018-06-17T08:24:34.998Z,2.50
2018-06-17T08:27:03.190Z,1.85
2018-06-17T08:29:31.425Z,1.70
2018-06-17T08:31:59.623Z,1.75
2018-06-17T08:34:27.877Z,1.92
2018-06-17T08:36:56.416Z,1.32
2018-06-17T08:39:25.206Z,1.75
2018-06-17T08:41:53.518Z,1.07
2018-06-17T08:44:22.080Z,1.57
2018-06-17T08:46:50.753Z,1.47
2018-06-17T08:49:19.588Z,1.00
2018-06-17T08:51:47.902Z,1.80
2018-06-17T08:54:16.195Z,1.00
2018-06-17T08:56:44.542Z,0.98
2018-06-17T08:59:12.770Z,1.40
2018-06-17T09:01:41.127Z,1.10
2018-06-17T09:04:09.427Z,1.45
2018-06-17T09:06:37.706Z,1.15
2018-06-17T09:09:10.495Z,1.12
2018-06-17T09:11:38.903Z,1.40
2018-06-17T09:14:07.222Z,1.20
2018-06-17T09:16:35.412Z,1.10
2018-06-17T09:19:03.679Z,1.20
2018-06-17T09:21:31.915Z,1.40
2018-06-17T09:24:00.643Z,1.10
2018-06-17T09:26:28.860Z,1.12
2018-06-17T09:28:57.500Z,0.82
2018-06-17T09:31:25.821Z,1.10
2018-06-17T09:33:54.178Z,1.07
2018-06-17T09:36:22.408Z,1.07
2018-06-17T09:38:50.640Z,1.10
2018-06-17T09:41:18.877Z,1.20
2018-06-17T09:43:47.065Z,1.25
2018-06-17T09:46:15.305Z,1.07
2018-06-17T09:48:43.537Z,1.32
2018-06-17T09:51:11.756Z,0.85
2018-06-17T09:53:39.976Z,0.85
2018-06-17T09:56:08.262Z,1.20
2018-06-17T09:58:36.561Z,1.00
2018-06-17T10:01:04.815Z,1.40
2018-06-17T10:03:33.031Z,0.90
2018-06-17T10:06:01.241Z,1.00
2018-06-17T10:08:29.484Z,1.02
2018-06-17T10:11:02.728Z,1.10
2018-06-17T10:13:32.354Z,0.93
2018-06-17T10:16:00.695Z,0.75
2018-06-17T10:18:29.495Z,0.90
2018-06-17T10:20:57.777Z,1.10
2018-06-17T10:23:26.116Z,0.78
2018-06-17T10:25:55.139Z,0.80
2018-06-17T10:28:24.690Z,0.98
2018-06-17T10:30:53.776Z,1.00
2018-06-17T10:33:22.643Z,1.07
2018-06-17T10:35:51.140Z,0.78
2018-06-17T10:38:19.402Z,1.00
2018-06-17T10:40:47.620Z,0.85
2018-06-17T10:43:19.212Z,0.80
2018-06-17T10:45:47.444Z,1.07
2018-06-17T10:48:15.980Z,0.80
2018-06-17T10:50:44.284Z,0.85
2018-06-17T10:53:12.562Z,0.72
2018-06-17T10:55:40.897Z,0.90
2018-06-17T10:58:09.089Z,0.72
2018-06-17T11:00:37.283Z,0.90
2018-06-17T11:03:05.577Z,0.93
2018-06-17T11:05:33.843Z,0.90
2018-06-17T11:08:02.039Z,1.00
2018-06-17T11:10:30.416Z,0.98
2018-06-17T11:12:58.670Z,0.90
2018-06-17T11:15:26.918Z,0.78
2018-06-17T11:17:55.152Z,0.90
2018-06-17T11:20:23.403Z,0.70
2018-06-17T11:22:51.571Z,0.90
2018-06-17T11:25:19.810Z,0.70
2018-06-17T11:27:48.046Z,0.80
2018-06-17T11:30:16.296Z,1.00
2018-06-17T11:32:44.581Z,1.17
2018-06-17T11:35:12.900Z,1.02
2018-06-17T11:37:41.130Z,0.80
2018-06-17T11:40:09.349Z,0.80
2018-06-17T11:42:37.578Z,0.90
2018-06-17T11:45:05.819Z,0.90
2018-06-17T11:47:34.028Z,1.00
2018-06-17T11:50:02.327Z,1.10
2018-06-17T11:52:30.536Z,1.20
2018-06-17T11:54:58.768Z,1.80
2018-06-17T11:57:27.078Z,1.10
2018-06-17T11:59:55.312Z,1.15
2018-06-17T12:02:23.541Z,0.93
2018-06-17T12:04:52.671Z,1.20
2018-06-17T12:07:21.026Z,1.30
2018-06-17T12:09:49.268Z,0.95
2018-06-17T12:12:17.486Z,0.93
2018-06-17T12:14:45.753Z,1.45
2018-06-17T12:17:13.945Z,1.17
2018-06-17T12:19:42.151Z,1.00
2018-06-17T12:22:10.429Z,1.05
2018-06-17T12:24:38.713Z,1.60
2018-06-17T12:27:07.082Z,1.12
2018-06-17T12:29:35.301Z,1.30
2018-06-17T12:32:03.540Z,1.05
2018-06-17T12:34:31.762Z,1.07
2018-06-17T12:37:00.495Z,1.60
2018-06-17T12:39:34.263Z,1.12
2018-06-17T12:42:02.595Z,1.30
2018-06-17T12:44:30.860Z,1.20
2018-06-17T12:46:59.102Z,1.10
2018-06-17T12:49:28.039Z,1.00
2018-06-17T12:51:56.349Z,1.15
2018-06-17T12:54:24.743Z,1.07
2018-06-17T12:56:52.992Z,1.05
2018-06-17T12:59:21.257Z,1.12
2018-06-17T13:01:49.546Z,1.10
2018-06-17T13:04:17.902Z,1.47
2018-06-17T13:06:46.170Z,0.95
2018-06-17T13:09:14.486Z,1.07
2018-06-17T13:11:42.703Z,0.80
2018-06-17T13:14:10.942Z,0.98
2018-06-17T13:16:39.195Z,0.90
2018-06-17T13:19:07.934Z,0.82
2018-06-17T13:21:36.201Z,1.12
2018-06-17T13:24:04.642Z,0.93
2018-06-17T13:26:32.921Z,0.90
2018-06-17T13:29:01.139Z,1.30
2018-06-17T13:31:29.437Z,1.07
2018-06-17T13:33:57.649Z,1.92
2018-06-17T13:36:25.913Z,1.05
2018-06-17T13:38:54.130Z,1.00
2018-06-17T13:41:22.350Z,1.10
2018-06-17T13:43:50.543Z,1.20
2018-06-17T13:46:18.761Z,1.30
2018-06-17T13:48:46.936Z,1.20
2018-06-17T13:51:15.192Z,1.00
2018-06-17T13:53:43.404Z,1.37
2018-06-17T13:56:11.632Z,1.10
2018-06-17T13:58:39.868Z,1.05
2018-06-17T14:01:08.118Z,1.47
2018-06-17T14:03:36.343Z,1.00
2018-06-17T14:06:04.640Z,0.90
2018-06-17T14:08:32.858Z,1.02
2018-06-17T14:11:01.127Z,1.20
2018-06-17T14:13:29.396Z,1.00
2018-06-17T14:15:57.580Z,1.32
2018-06-17T14:18:25.814Z,0.95
2018-06-17T14:20:54.062Z,1.35
2018-06-17T14:23:22.459Z,0.80
2018-06-17T14:25:50.811Z,1.30
2018-06-17T14:28:19.014Z,1.35
2018-06-17T14:30:47.260Z,1.20
2018-06-17T14:33:15.473Z,1.20
2018-06-17T14:35:43.749Z,1.17
2018-06-17T14:38:11.970Z,1.47
2018-06-17T14:40:45.440Z,0.93
2018-06-17T14:43:18.973Z,1.40
2018-06-17T14:45:52.640Z,1.20
2018-06-17T14:48:26.112Z,1.32
2018-06-17T14:50:59.592Z,0.90
2018-06-17T14:53:27.858Z,1.10
2018-06-17T14:55:56.037Z,1.42
2018-06-17T14:58:24.260Z,1.85
2018-06-17T15:00:52.461Z,1.30
2018-06-17T15:03:20.703Z,1.50
2018-06-17T15:05:48.997Z,1.55
2018-06-17T15:08:17.204Z,2.08
2018-06-17T15:10:45.460Z,1.37
2018-06-17T15:13:13.700Z,1.37
2018-06-17T15:15:42.761Z,1.57
2018-06-17T15:18:11.007Z,1.20
2018-06-17T15:20:39.273Z,1.50
2018-06-17T15:23:07.604Z,1.50
2018-06-17T15:25:35.903Z,1.77
2018-06-17T15:28:04.154Z,1.50
2018-06-17T15:30:32.399Z,1.90
2018-06-17T15:33:05.869Z,1.32
2018-06-17T15:35:39.611Z,1.20
2018-06-17T15:38:13.106Z,1.10
2018-06-17T15:40:46.865Z,1.35
2018-06-17T15:43:15.062Z,1.40
2018-06-17T15:45:43.329Z,1.27
2018-06-17T15:48:11.559Z,1.62
2018-06-17T15:50:39.843Z,1.42
2018-06-17T15:53:08.054Z,1.70
2018-06-17T15:55:36.301Z,1.20
2018-06-17T15:58:04.590Z,1.30
2018-06-17T16:00:32.910Z,1.30
2018-06-17T16:03:01.414Z,1.47
2018-06-17T16:05:29.673Z,1.25
2018-06-17T16:07:58.005Z,1.55
2018-06-17T16:10:26.231Z,1.57
2018-06-17T16:12:59.840Z,1.15
2018-06-17T16:15:33.268Z,1.60
2018-06-17T16:18:07.403Z,1.62
2018-06-17T16:20:40.971Z,1.40
2018-06-17T16:23:09.711Z,1.17
2018-06-17T16:25:37.963Z,1.25
2018-06-17T16:28:06.464Z,1.00
2018-06-17T16:30:34.752Z,1.30
2018-06-17T16:33:03.020Z,1.42
2018-06-17T16:35:31.439Z,2.02
2018-06-17T16:37:59.786Z,1.57
2018-06-17T16:40:28.111Z,1.40
2018-06-17T16:42:56.376Z,1.55
2018-06-17T16:45:24.623Z,1.35
2018-06-17T16:47:52.881Z,1.50
2018-06-17T16:50:21.102Z,1.30
2018-06-17T16:52:54.715Z,1.62
2018-06-17T16:55:28.408Z,1.80
2018-06-17T16:58:01.976Z,1.32
2018-06-17T17:00:30.218Z,1.35
2018-06-17T17:02:58.469Z,1.75
2018-06-17T17:05:26.691Z,1.45
2018-06-17T17:07:54.919Z,1.45
2018-06-17T17:10:23.165Z,1.30
2018-06-17T17:12:51.722Z,1.40
2018-06-17T17:15:19.997Z,1.20
2018-06-17T17:17:48.297Z,1.50
2018-06-17T17:20:16.591Z,1.27
2018-06-17T17:22:44.891Z,1.75
2018-06-17T17:25:13.121Z,1.70
2018-06-17T17:27:41.356Z,1.30
2018-06-17T17:30:09.645Z,1.62
2018-06-17T17:32:43.092Z,1.35
2018-06-17T17:35:16.766Z,1.57
2018-06-17T17:37:50.270Z,1.60
2018-06-17T17:40:23.864Z,1.60
2018-06-17T17:42:52.157Z,1.35
2018-06-17T17:45:22.373Z,1.50
2018-06-17T17:47:50.694Z,1.50
2018-06-17T17:50:18.936Z,1.37
2018-06-17T17:52:47.219Z,2.02
2018-06-17T17:55:15.397Z,1.80
2018-06-17T17:57:43.718Z,1.72
2018-06-17T18:00:11.988Z,1.72
2018-06-17T18:02:40.275Z,1.55
2018-06-17T18:05:08.543Z,1.87
2018-06-17T18:07:36.803Z,1.95
2018-06-17T18:10:05.039Z,1.30
2018-06-17T18:12:33.283Z,1.27
2018-06-17T18:15:01.600Z,1.57
2018-06-17T18:17:29.844Z,1.37
2018-06-17T18:19:58.049Z,1.80
2018-06-17T18:22:26.284Z,1.15
2018-06-17T18:25:00.070Z,1.25
2018-06-17T18:27:33.720Z,2.85
2018-06-17T18:30:07.205Z,1.10
2018-06-17T18:32:40.613Z,1.50
2018-06-17T18:35:14.136Z,1.12
2018-06-17T18:37:42.511Z,1.10
2018-06-17T18:40:10.795Z,1.47
2018-06-17T18:42:39.044Z,1.07
2018-06-17T18:45:07.263Z,1.22
2018-06-17T18:47:35.504Z,1.12
2018-06-17T18:50:03.794Z,0.90
2018-06-17T18:52:32.011Z,1.30
2018-06-17T18:55:00.260Z,1.00
2018-06-17T18:57:28.886Z,0.90
2018-06-17T18:59:57.161Z,1.10
2018-06-17T19:02:25.369Z,1.10
2018-06-17T19:04:53.660Z,1.27
2018-06-17T19:07:21.987Z,1.02
2018-06-17T19:09:55.584Z,1.05
2018-06-17T19:12:29.194Z,1.00
2018-06-17T19:15:03.244Z,0.93
2018-06-17T19:17:37.463Z,1.00
2018-06-17T19:20:05.769Z,1.27
2018-06-17T19:22:34.088Z,1.55
2018-06-17T19:25:02.293Z,0.90
2018-06-17T19:27:30.525Z,1.00
2018-06-17T19:29:58.793Z,0.90
2018-06-17T19:32:27.097Z,1.25
2018-06-17T19:34:55.364Z,1.20
2018-06-17T19:37:23.794Z,1.75
2018-06-17T19:39:52.157Z,1.00
2018-06-17T19:42:20.359Z,1.20
2018-06-17T19:44:48.616Z,1.45
2018-06-17T19:47:16.838Z,1.05
2018-06-17T19:49:50.319Z,1.20
2018-06-17T19:53:24.552Z,0.90
2018-06-17T19:55:58.042Z,1.00
2018-06-17T19:58:31.751Z,0.95
2018-06-17T20:01:01.720Z,1.27
2018-06-17T20:03:29.998Z,1.10
2018-06-17T20:05:58.908Z,1.20
2018-06-17T20:08:27.211Z,0.90
2018-06-17T20:10:55.453Z,1.02
2018-06-17T20:13:23.747Z,1.57
2018-06-17T20:15:51.983Z,0.98
2018-06-17T20:18:20.382Z,1.00
2018-06-17T20:20:48.742Z,1.10
2018-06-17T20:23:17.044Z,1.05
2018-06-17T20:25:45.353Z,1.02
2018-06-17T20:28:13.633Z,1.10
2018-06-17T20:30:41.922Z,0.90
2018-06-17T20:33:15.465Z,1.22
2018-06-17T20:35:49.065Z,0.95
2018-06-17T20:38:22.552Z,1.12
2018-06-17T20:40:56.163Z,1.02
2018-06-17T20:43:29.937Z,1.62
2018-06-17T20:45:58.754Z,1.22
2018-06-17T20:48:27.097Z,1.27
2018-06-17T20:50:55.496Z,1.27
2018-06-17T20:53:23.720Z,1.87
2018-06-17T20:55:52.122Z,1.40
2018-06-17T20:58:20.538Z,1.22
2018-06-17T21:00:48.799Z,1.37
2018-06-17T21:03:17.139Z,1.50
2018-06-17T21:05:45.411Z,1.50
2018-06-17T21:08:13.899Z,1.50
2018-06-17T21:10:42.152Z,1.67
2018-06-17T21:13:10.432Z,1.25
2018-06-17T21:15:38.703Z,1.30
2018-06-17T21:18:07.018Z,1.40
2018-06-17T21:20:40.634Z,1.27
2018-06-17T21:23:14.186Z,1.30
2018-06-17T21:25:47.694Z,1.20
2018-06-17T21:28:15.995Z,1.40
2018-06-17T21:30:44.253Z,1.30
2018-06-17T21:33:12.524Z,1.25
2018-06-17T21:35:40.816Z,1.30
2018-06-17T21:38:09.061Z,1.12
2018-06-17T21:40:37.357Z,1.30
2018-06-17T21:43:05.651Z,1.10
2018-06-17T21:45:33.919Z,1.02
2018-06-17T21:48:02.212Z,1.30
2018-06-17T21:50:31.222Z,1.02
2018-06-17T21:52:59.492Z,1.32
2018-06-17T21:55:27.763Z,1.30
2018-06-17T21:57:56.096Z,0.98
2018-06-17T22:00:25.022Z,1.00
2018-06-17T22:02:53.311Z,1.07
2018-06-17T22:05:21.674Z,1.20
2018-06-17T22:07:55.311Z,1.10
2018-06-17T22:10:28.877Z,1.20
2018-06-17T22:12:59.094Z,1.30
2018-06-17T22:15:32.722Z,1.50
2018-06-17T22:18:01.216Z,1.20
2018-06-17T22:20:29.452Z,1.00
2018-06-17T22:22:57.765Z,1.27
2018-06-17T22:25:27.793Z,1.15
2018-06-17T22:28:02.834Z,1.10
2018-06-17T22:30:34.748Z,1.30
2018-06-17T22:33:07.954Z,1.30
2018-06-17T22:35:39.348Z,1.40
2018-06-17T22:38:07.653Z,1.20
2018-06-17T22:40:35.956Z,1.25
2018-06-17T22:43:04.299Z,1.30
2018-06-17T22:45:32.657Z,1.20
2018-06-17T22:48:00.940Z,1.10
2018-06-17T22:50:29.177Z,1.25
2018-06-17T22:53:08.541Z,1.27
2018-06-17T22:55:36.790Z,1.20
2018-06-17T23:06:04.199Z,1.00
2018-06-17T23:08:37.771Z,1.07
2018-06-17T23:11:06.164Z,1.20
2018-06-17T23:17:54.856Z,1.07
2018-06-17T23:20:23.098Z,1.10
2018-06-17T23:22:51.359Z,1.17
2018-06-17T23:25:33.881Z,1.32
2018-06-17T23:37:43.776Z,1.20
2018-06-17T23:40:12.094Z,1.65
2018-06-17T23:42:40.399Z,1.15
2018-06-17T23:45:22.147Z,1.40
2018-06-17T23:50:41.052Z,1.40
2018-06-17T23:53:14.534Z,1.20
2018-06-17T23:55:50.140Z,1.20
2018-06-17T23:58:30.258Z,1.45
